KOI weather

Kirkwall Airport
Orkney Islands, Scotland, United Kingdom

Public forecast

Using degrees Celsius for public forecast. Weather courtesy of forecast.io.

Current aviation weather report (METAR) for Kirkwall Airport

Retrieved 2020/07/09 18:20 UTC (5 minutes ago):

EGPA 091820Z AUTO 07002KT 9999 BKN030/// OVC037/// 12/09 Q1014

Closest aviation forecast (TAF) to Kirkwall Airport

Closest forecast is RAF Lossiemouth, 76.4 nm (141.6 km) S. Retrieved 2020/07/09 18:18 UTC (7 minutes ago):

TAF EGQS 091611Z 0918/1012 05010KT 9999 SCT030 PROB30 TEMPO 0920/1010 7000 SHRA SCT018